Time;durP1;ratioP1;P1;durP2;ratioP2;P2;SDS_P1;SDS_P2;PMS_P1;PMS_P2;Temp;Humidity;BMP_temperature;BMP_pressure;BME280_temperature;BME280_humidity;BME280_pressure;Samples;Min_cycle;Max_cycle;Signal;HPM_P1;HPM_P2
2021/05/10 00:00:48;;;;;;;10.07;1.23;;;19.10;77.70;;;;;;5011582;28;20034;-61
2021/05/10 00:03:14;;;;;;;2.92;1.38;;;19.00;78.20;;;;;;5009912;28;20097;-61
2021/05/10 00:05:40;;;;;;;5.32;1.50;;;19.10;77.70;;;;;;5010798;28;20109;-62
2021/05/10 00:08:07;;;;;;;8.50;2.55;;;19.00;78.30;;;;;;5006705;28;20026;-63
2021/05/10 00:10:33;;;;;;;3.60;1.55;;;19.00;78.30;;;;;;4966340;28;20046;-59
2021/05/10 00:12:59;;;;;;;4.90;1.63;;;19.00;78.40;;;;;;5007974;28;20026;-61
2021/05/10 00:15:25;;;;;;;1.83;1.27;;;19.00;78.50;;;;;;5005300;28;20052;-61
2021/05/10 00:17:50;;;;;;;5.70;1.50;;;19.00;79.00;;;;;;4990902;28;20018;-62
2021/05/10 00:20:16;;;;;;;4.97;2.00;;;19.00;79.10;;;;;;5006532;28;20025;-60
2021/05/10 00:22:42;;;;;;;3.97;1.50;;;19.00;79.20;;;;;;5007905;28;20080;-61
2021/05/10 00:25:08;;;;;;;9.40;1.73;;;19.00;79.20;;;;;;4993440;28;20108;-62
2021/05/10 00:27:34;;;;;;;3.78;1.35;;;19.00;79.00;;;;;;4983382;28;20040;-61
2021/05/10 00:29:59;;;;;;;7.32;2.03;;;19.00;79.10;;;;;;5005176;28;20034;-61
2021/05/10 00:32:25;;;;;;;3.53;1.70;;;19.10;78.30;;;;;;5006714;28;20061;-61
2021/05/10 00:34:52;;;;;;;4.22;1.70;;;19.10;78.60;;;;;;5009373;28;20026;-61
2021/05/10 00:37:18;;;;;;;6.90;1.50;;;19.10;79.00;;;;;;5011004;28;20022;-62
2021/05/10 00:39:44;;;;;;;6.35;1.23;;;19.10;78.10;;;;;;5007174;28;20022;-61
2021/05/10 00:42:09;;;;;;;4.05;1.30;;;19.20;77.80;;;;;;5009640;28;20022;-62
2021/05/10 00:44:35;;;;;;;4.22;1.52;;;19.30;77.50;;;;;;5004154;28;20148;-62
2021/05/10 00:47:01;;;;;;;3.92;1.02;;;19.30;77.70;;;;;;5007135;28;20034;-61
2021/05/10 00:49:26;;;;;;;7.50;1.33;;;19.30;77.80;;;;;;5009083;28;20129;-62
2021/05/10 00:51:52;;;;;;;6.10;1.70;;;19.30;76.70;;;;;;5007221;28;20503;-61
2021/05/10 00:54:17;;;;;;;5.05;1.90;;;19.40;76.30;;;;;;5000618;28;20041;-61
2021/05/10 00:56:43;;;;;;;5.53;1.20;;;19.50;75.40;;;;;;5009858;28;20033;-62
2021/05/10 00:59:09;;;;;;;2.70;1.63;;;19.50;75.40;;;;;;5005437;28;20021;-62
2021/05/10 01:01:35;;;;;;;1.58;1.23;;;19.50;75.40;;;;;;5003046;28;20034;-60
2021/05/10 01:04:01;;;;;;;3.60;1.10;;;19.50;75.50;;;;;;5007456;28;20057;-62
2021/05/10 01:06:26;;;;;;;4.07;1.65;;;19.60;75.40;;;;;;5004057;28;20034;-61
2021/05/10 01:08:52;;;;;;;3.20;1.30;;;19.60;75.40;;;;;;5005560;28;20041;-62
2021/05/10 01:11:18;;;;;;;8.68;1.70;;;19.60;75.20;;;;;;4986363;28;20041;-62
2021/05/10 01:13:45;;;;;;;4.20;1.55;;;19.60;75.40;;;;;;5009422;28;20037;-61
2021/05/10 01:16:11;;;;;;;2.03;1.30;;;19.60;74.90;;;;;;5007364;28;20022;-59
2021/05/10 01:18:37;;;;;;;3.13;1.63;;;19.60;74.50;;;;;;5008734;28;20109;-62
2021/05/10 01:21:03;;;;;;;7.00;1.52;;;19.60;74.50;;;;;;5007845;28;20113;-62
2021/05/10 01:23:30;;;;;;;3.05;1.65;;;19.60;74.60;;;;;;5010149;28;20068;-61
2021/05/10 01:25:57;;;;;;;2.13;1.25;;;19.70;73.60;;;;;;5005430;28;20819;-62
2021/05/10 01:28:22;;;;;;;3.80;1.90;;;19.70;74.00;;;;;;5010223;28;20049;-61
2021/05/10 01:30:50;;;;;;;1.80;1.40;;;19.80;73.40;;;;;;5009676;28;20030;-62
2021/05/10 01:33:20;;;;;;;9.82;1.60;;;19.90;72.10;;;;;;5007227;28;20026;-61
2021/05/10 01:35:50;;;;;;;2.58;1.13;;;19.90;72.50;;;;;;4987372;28;20022;-62
2021/05/10 01:38:16;;;;;;;2.75;1.50;;;19.90;72.20;;;;;;5009236;28;20112;-62
2021/05/10 01:40:42;;;;;;;4.20;1.67;;;20.10;70.90;;;;;;4991283;28;20030;-62
2021/05/10 01:43:08;;;;;;;1.30;1.10;;;20.20;71.10;;;;;;4986422;28;20030;-61
2021/05/10 01:45:34;;;;;;;3.97;1.40;;;20.10;71.20;;;;;;5006611;28;20112;-62
2021/05/10 01:48:05;;;;;;;2.72;1.50;;;20.10;71.30;;;;;;5003522;28;20034;-61
2021/05/10 01:50:32;;;;;;;3.42;1.20;;;20.10;71.40;;;;;;4998255;28;20018;-62
2021/05/10 01:52:57;;;;;;;1.77;1.50;;;20.10;70.80;;;;;;5008328;28;20681;-61
2021/05/10 01:55:24;;;;;;;3.85;1.10;;;20.20;70.40;;;;;;5005016;28;20034;-62
2021/05/10 01:57:58;;;;;;;2.03;1.42;;;20.20;71.10;;;;;;5009324;28;20030;-61
2021/05/10 02:00:30;;;;;;;4.13;1.15;;;20.30;69.90;;;;;;4989732;28;20040;-61
2021/05/10 02:03:03;;;;;;;2.92;1.42;;;20.30;69.90;;;;;;5000949;28;20110;-62
2021/05/10 02:05:29;;;;;;;6.43;1.85;;;20.30;69.00;;;;;;5008602;28;20030;-62
2021/05/10 02:07:58;;;;;;;5.28;1.40;;;20.40;69.10;;;;;;5008572;28;20026;-60
2021/05/10 02:10:37;;;;;;;2.80;1.45;;;20.60;68.30;;;;;;5008758;28;20030;-61
2021/05/10 02:13:09;;;;;;;4.57;1.48;;;20.60;67.50;;;;;;4984801;28;20100;-59
2021/05/10 02:15:36;;;;;;;3.28;1.50;;;20.60;67.80;;;;;;5004821;28;20034;-61
2021/05/10 02:18:02;;;;;;;5.07;1.58;;;20.60;67.40;;;;;;5008456;28;20030;-62
2021/05/10 02:20:29;;;;;;;3.08;1.65;;;20.60;67.60;;;;;;5008570;28;20061;-61
2021/05/10 02:22:57;;;;;;;5.95;1.67;;;20.50;67.70;;;;;;5009498;28;20029;-62
2021/05/10 02:25:25;;;;;;;2.60;1.65;;;20.50;68.40;;;;;;5003968;28;20030;-59
2021/05/10 02:27:52;;;;;;;2.13;1.50;;;20.40;68.50;;;;;;5008555;28;20025;-62
2021/05/10 02:30:19;;;;;;;3.70;1.27;;;20.40;68.30;;;;;;5008116;28;20038;-62
2021/05/10 02:32:45;;;;;;;3.42;1.65;;;20.40;69.10;;;;;;5007004;28;20531;-62
2021/05/10 02:35:11;;;;;;;2.58;1.70;;;20.30;69.00;;;;;;4993550;28;20388;-62
2021/05/10 02:37:37;;;;;;;3.42;1.55;;;20.20;69.20;;;;;;5005903;28;20060;-62
2021/05/10 02:40:05;;;;;;;4.25;1.70;;;20.20;69.10;;;;;;5009435;28;20056;-61
2021/05/10 02:42:31;;;;;;;2.08;1.35;;;20.20;69.50;;;;;;5008709;28;20069;-61
2021/05/10 02:44:56;;;;;;;2.83;1.02;;;20.20;69.10;;;;;;5006390;28;20029;-62
2021/05/10 02:47:22;;;;;;;2.40;1.08;;;20.20;69.00;;;;;;5006718;28;20027;-61
2021/05/10 02:49:47;;;;;;;3.03;1.92;;;20.20;69.40;;;;;;4989611;28;20044;-61
2021/05/10 02:52:13;;;;;;;2.58;1.75;;;20.10;69.50;;;;;;5009407;28;20061;-62
2021/05/10 02:54:39;;;;;;;4.05;1.15;;;20.10;69.80;;;;;;5006862;28;20061;-62
2021/05/10 02:57:05;;;;;;;2.78;1.58;;;20.10;69.30;;;;;;5008441;28;20022;-61
2021/05/10 02:59:30;;;;;;;4.00;1.73;;;20.20;69.40;;;;;;4998615;28;20050;-61
2021/05/10 03:01:56;;;;;;;2.50;1.38;;;20.20;69.60;;;;;;5003518;28;20022;-61
2021/05/10 03:04:21;;;;;;;4.78;1.60;;;20.20;69.10;;;;;;5003937;28;20037;-61
2021/05/10 03:06:47;;;;;;;2.17;1.55;;;20.20;69.40;;;;;;5008437;28;20536;-62
2021/05/10 03:09:12;;;;;;;2.38;1.20;;;20.20;70.00;;;;;;5010014;28;20053;-61
2021/05/10 03:11:38;;;;;;;3.20;1.42;;;20.00;70.60;;;;;;4986601;28;20052;-62
2021/05/10 03:14:04;;;;;;;3.60;1.50;;;20.00;70.90;;;;;;5012233;28;20390;-62
2021/05/10 03:16:29;;;;;;;1.95;1.45;;;19.90;71.00;;;;;;5005828;28;20038;-61
2021/05/10 03:18:55;;;;;;;2.45;1.40;;;19.90;71.20;;;;;;4992331;28;20906;-62
2021/05/10 03:21:20;;;;;;;3.47;1.52;;;19.90;71.20;;;;;;5011817;28;20045;-61
2021/05/10 03:23:46;;;;;;;4.38;1.50;;;19.90;71.50;;;;;;5009343;28;20064;-60
2021/05/10 03:26:12;;;;;;;3.33;1.50;;;19.80;72.10;;;;;;5012193;28;20022;-61
2021/05/10 03:28:37;;;;;;;1.80;1.30;;;19.80;72.40;;;;;;5010960;28;20117;-61
2021/05/10 03:31:03;;;;;;;3.72;1.30;;;19.70;72.60;;;;;;5002414;28;20041;-61
2021/05/10 03:33:29;;;;;;;4.43;1.90;;;19.60;73.50;;;;;;5011742;28;20030;-61
2021/05/10 03:35:55;;;;;;;3.55;1.48;;;19.50;73.50;;;;;;5011467;28;20037;-61
2021/05/10 03:38:21;;;;;;;1.95;1.38;;;19.50;73.80;;;;;;5011311;28;20036;-61
2021/05/10 03:40:46;;;;;;;5.40;1.73;;;19.40;73.80;;;;;;5005550;28;20094;-62
2021/05/10 03:43:13;;;;;;;8.82;2.58;;;19.40;74.70;;;;;;4984087;28;20029;-62
2021/05/10 03:45:39;;;;;;;5.00;1.50;;;19.30;75.30;;;;;;5010421;28;20034;-62
2021/05/10 03:48:06;;;;;;;4.60;1.35;;;19.20;76.60;;;;;;5005660;28;20034;-58
2021/05/10 03:50:32;;;;;;;2.78;1.77;;;19.20;76.30;;;;;;5007509;28;20042;-61
2021/05/10 03:52:57;;;;;;;6.13;1.20;;;19.20;76.60;;;;;;5005021;28;20033;-62
2021/05/10 03:55:23;;;;;;;4.70;1.60;;;19.20;77.20;;;;;;5008391;28;20108;-61
2021/05/10 03:57:50;;;;;;;3.45;1.40;;;19.20;77.10;;;;;;5011160;28;20030;-62
2021/05/10 04:00:17;;;;;;;5.72;1.45;;;19.10;78.00;;;;;;4999720;28;20517;-60
2021/05/10 04:02:43;;;;;;;2.83;1.40;;;19.20;77.90;;;;;;5004610;28;20812;-62
2021/05/10 04:10:39;;;;;;;4.32;1.50;;;19.20;77.60;;;;;;5003226;28;20402;-61
2021/05/10 04:13:38;;;;;;;2.83;1.40;;;19.20;77.80;;;;;;4985244;28;20087;-62
2021/05/10 04:15:42;;;;;;;2.45;1.95;;;19.20;77.80;;;;;;4991187;28;20416;-62
2021/05/10 04:18:08;;;;;;;3.90;1.60;;;19.30;77.70;;;;;;5008830;28;20037;-62
2021/05/10 04:20:33;;;;;;;2.80;1.40;;;19.40;77.30;;;;;;4992834;28;20052;-60
2021/05/10 04:22:59;;;;;;;2.72;1.33;;;19.40;76.90;;;;;;5008666;28;20501;-62
2021/05/10 04:25:25;;;;;;;3.67;1.58;;;19.60;76.10;;;;;;5010248;28;20535;-59
2021/05/10 04:27:51;;;;;;;5.18;1.58;;;19.60;76.10;;;;;;5009874;28;20033;-60
2021/05/10 04:30:17;;;;;;;3.45;1.75;;;19.70;76.10;;;;;;5011434;28;20030;-62
2021/05/10 04:32:42;;;;;;;5.43;1.30;;;19.70;76.20;;;;;;5015730;28;20026;-62
2021/05/10 04:35:09;;;;;;;1.92;1.50;;;19.70;75.50;;;;;;5013058;28;20033;-61
2021/05/10 04:37:34;;;;;;;3.13;1.17;;;19.70;76.10;;;;;;4993292;28;20033;-61
2021/05/10 04:40:00;;;;;;;2.60;1.45;;;19.70;76.20;;;;;;5000905;28;20018;-62
2021/05/10 04:42:26;;;;;;;5.28;1.52;;;19.70;76.30;;;;;;5006153;28;20069;-61
2021/05/10 04:44:51;;;;;;;4.15;1.60;;;19.70;76.50;;;;;;5005875;28;20033;-62
2021/05/10 04:47:17;;;;;;;3.42;1.48;;;19.70;76.10;;;;;;5014637;28;20034;-62
2021/05/10 04:49:43;;;;;;;5.07;1.50;;;19.80;76.20;;;;;;5019089;28;20479;-61
2021/05/10 04:52:09;;;;;;;3.78;1.70;;;19.80;75.90;;;;;;5014029;28;20033;-61
2021/05/10 04:54:35;;;;;;;3.38;1.60;;;19.80;76.00;;;;;;4971685;28;20085;-62
2021/05/10 04:57:00;;;;;;;8.23;1.60;;;19.80;76.20;;;;;;5009944;28;20065;-60
2021/05/10 04:59:26;;;;;;;5.63;1.63;;;19.80;76.90;;;;;;4994804;28;20141;-61
2021/05/10 05:01:52;;;;;;;7.05;2.03;;;19.80;78.00;;;;;;5012023;28;20088;-60
2021/05/10 05:04:17;;;;;;;4.75;2.60;;;19.70;79.30;;;;;;5008446;28;20029;-61
2021/05/10 05:06:43;;;;;;;5.03;1.70;;;19.50;82.60;;;;;;5009882;28;20026;-62
2021/05/10 05:09:09;;;;;;;5.80;1.88;;;19.30;86.80;;;;;;5003370;28;20029;-61
2021/05/10 05:11:34;;;;;;;6.45;1.50;;;19.00;91.20;;;;;;5010338;28;20497;-61
2021/05/10 05:14:00;;;;;;;8.18;1.85;;;18.80;92.00;;;;;;4985436;28;20496;-61
2021/05/10 05:16:25;;;;;;;5.60;1.90;;;18.60;92.50;;;;;;5008912;28;20103;-62
2021/05/10 05:18:51;;;;;;;4.75;1.75;;;18.50;93.50;;;;;;5008290;28;20018;-62
2021/05/10 05:21:17;;;;;;;4.50;1.58;;;18.50;94.50;;;;;;5002012;28;20026;-62
2021/05/10 05:23:42;;;;;;;4.28;2.20;;;18.40;93.60;;;;;;5004696;28;20026;-62
2021/05/10 05:26:08;;;;;;;8.65;1.60;;;18.40;95.50;;;;;;5007462;28;20041;-61
2021/05/10 05:28:34;;;;;;;6.18;1.63;;;18.50;94.10;;;;;;4998436;28;20030;-60
2021/05/10 05:31:04;;;;;;;6.13;1.80;;;18.50;94.30;;;;;;5009960;28;20116;-62
2021/05/10 05:33:29;;;;;;;5.57;1.70;;;18.50;94.20;;;;;;5007596;28;20030;-59
2021/05/10 05:35:55;;;;;;;2.80;1.25;;;18.60;93.30;;;;;;5007790;28;20032;-61
2021/05/10 05:38:21;;;;;;;6.00;1.38;;;18.60;93.70;;;;;;5004982;28;20061;-56
2021/05/10 05:40:47;;;;;;;5.78;1.30;;;18.60;93.10;;;;;;5003205;28;20104;-61
2021/05/10 05:43:13;;;;;;;4.63;1.70;;;18.60;93.20;;;;;;5008883;28;20027;-60
2021/05/10 05:45:40;;;;;;;3.97;1.80;;;18.60;93.30;;;;;;4978198;28;20033;-61
2021/05/10 05:48:10;;;;;;;8.52;1.65;;;18.60;94.00;;;;;;5008979;28;20037;-61
2021/05/10 05:50:36;;;;;;;6.03;1.58;;;18.60;94.20;;;;;;5008487;28;20042;-62
2021/05/10 05:53:02;;;;;;;3.88;1.65;;;18.60;93.70;;;;;;5009438;28;20034;-61
2021/05/10 05:55:28;;;;;;;6.65;1.80;;;18.60;94.20;;;;;;4991224;28;20037;-62
2021/05/10 05:57:56;;;;;;;4.15;1.65;;;18.60;94.20;;;;;;5005429;28;20045;-61
2021/05/10 06:00:22;;;;;;;4.43;1.50;;;18.50;94.60;;;;;;5005852;28;20018;-61
2021/05/10 06:02:48;;;;;;;2.33;1.15;;;18.50;95.00;;;;;;5002454;28;20489;-61
2021/05/10 06:05:14;;;;;;;4.95;1.77;;;18.50;94.40;;;;;;4999356;28;20494;-62
2021/05/10 06:07:41;;;;;;;4.70;1.95;;;18.50;94.30;;;;;;5009445;28;20456;-62
2021/05/10 06:10:09;;;;;;;5.68;1.65;;;18.40;95.00;;;;;;5007574;28;20061;-62
2021/05/10 06:12:35;;;;;;;5.20;2.53;;;18.40;94.80;;;;;;5008374;28;20487;-62
2021/05/10 06:15:01;;;;;;;5.45;1.65;;;18.40;95.00;;;;;;4980586;28;20042;-62
2021/05/10 06:17:27;;;;;;;3.58;1.30;;;18.40;94.90;;;;;;5007929;28;20025;-62
2021/05/10 06:19:53;;;;;;;5.15;1.73;;;18.40;94.70;;;;;;5008265;28;20018;-62
2021/05/10 06:22:19;;;;;;;2.92;1.67;;;18.40;94.80;;;;;;4996444;28;20404;-62
2021/05/10 06:24:45;;;;;;;2.70;1.85;;;18.40;95.00;;;;;;4990909;28;20032;-61
2021/05/10 06:27:10;;;;;;;6.88;2.05;;;18.40;95.10;;;;;;5004932;28;20445;-62
2021/05/10 06:29:36;;;;;;;1.65;1.50;;;18.50;94.90;;;;;;5008763;28;20451;-61
2021/05/10 06:32:02;;;;;;;3.72;1.70;;;18.50;94.80;;;;;;5006184;28;20026;-62
2021/05/10 06:34:28;;;;;;;4.60;1.98;;;18.60;95.00;;;;;;5006242;28;20030;-60
2021/05/10 06:36:53;;;;;;;4.82;1.55;;;18.70;95.10;;;;;;5008697;28;20037;-62
2021/05/10 06:39:19;;;;;;;5.47;1.83;;;18.70;95.00;;;;;;5007264;28;20538;-60
2021/05/10 06:41:45;;;;;;;4.60;1.83;;;18.80;95.20;;;;;;5011253;28;20022;-61
2021/05/10 06:44:10;;;;;;;8.63;2.22;;;18.80;95.00;;;;;;5008823;28;20022;-62
2021/05/10 06:46:36;;;;;;;6.82;2.03;;;18.80;95.20;;;;;;5004794;28;20055;-61
2021/05/10 06:49:02;;;;;;;5.22;1.65;;;18.80;95.10;;;;;;5009249;28;20042;-61
2021/05/10 06:51:27;;;;;;;3.28;1.92;;;18.90;95.40;;;;;;5007195;28;20030;-61
2021/05/10 06:53:53;;;;;;;6.35;2.60;;;19.20;94.70;;;;;;5012007;28;20034;-62
2021/05/10 06:56:19;;;;;;;9.75;2.30;;;19.50;94.40;;;;;;5012289;28;20442;-62
2021/05/10 06:58:44;;;;;;;5.32;1.75;;;19.70;94.40;;;;;;5010182;28;20022;-63
2021/05/10 07:01:10;;;;;;;5.05;1.60;;;19.90;94.00;;;;;;5001858;28;20038;-62
2021/05/10 07:03:36;;;;;;;2.70;1.70;;;20.30;93.10;;;;;;5008233;28;20434;-62
2021/05/10 07:06:01;;;;;;;5.45;1.40;;;21.10;92.40;;;;;;5011307;28;20048;-62
2021/05/10 07:08:27;;;;;;;5.13;1.50;;;22.80;90.60;;;;;;5012582;28;20392;-62
2021/05/10 07:10:53;;;;;;;5.45;1.38;;;24.20;82.90;;;;;;5011628;28;20035;-61
2021/05/10 07:13:22;;;;;;;5.07;1.60;;;24.80;78.10;;;;;;4983956;28;20049;-61
2021/05/10 07:15:48;;;;;;;5.35;2.17;;;24.70;77.30;;;;;;5006218;28;20479;-61
2021/05/10 07:18:14;;;;;;;3.22;1.30;;;24.30;77.10;;;;;;5010896;28;20084;-61
2021/05/10 07:20:44;;;;;;;3.70;1.38;;;23.80;78.60;;;;;;5007406;28;20296;-61
2021/05/10 07:23:12;;;;;;;4.28;1.40;;;23.50;79.40;;;;;;5010260;28;20026;-61
2021/05/10 07:25:46;;;;;;;5.00;1.98;;;23.50;81.00;;;;;;4994010;28;20485;-61
2021/05/10 07:28:15;;;;;;;5.30;1.88;;;23.50;80.70;;;;;;5012380;28;20022;-62
2021/05/10 07:30:41;;;;;;;5.47;1.58;;;23.90;79.90;;;;;;5010868;28;20038;-61
2021/05/10 07:33:07;;;;;;;3.13;1.65;;;23.60;79.70;;;;;;5011548;28;21303;-62
2021/05/10 07:35:33;;;;;;;6.13;1.67;;;23.10;81.40;;;;;;5006177;28;20030;-62
2021/05/10 07:37:59;;;;;;;4.95;2.28;;;22.90;81.30;;;;;;5004708;28;20095;-61
2021/05/10 07:40:26;;;;;;;3.33;1.60;;;22.50;84.20;;;;;;5012235;28;20045;-61
2021/05/10 07:42:52;;;;;;;2.85;1.70;;;22.20;83.70;;;;;;5006941;28;20451;-62
2021/05/10 07:45:19;;;;;;;7.65;1.98;;;21.90;85.50;;;;;;5004858;28;20502;-63
2021/05/10 07:47:44;;;;;;;11.07;1.70;;;21.50;86.20;;;;;;5011999;28;20617;-61
2021/05/10 07:50:11;;;;;;;2.78;1.70;;;21.20;87.40;;;;;;4992887;28;20033;-61
2021/05/10 07:52:37;;;;;;;6.55;2.10;;;20.80;88.50;;;;;;5009012;28;20037;-61
2021/05/10 07:55:05;;;;;;;6.43;1.58;;;20.60;89.40;;;;;;4982239;28;20054;-61
2021/05/10 07:57:31;;;;;;;8.13;2.60;;;20.40;90.00;;;;;;5011976;28;20088;-61
2021/05/10 07:59:56;;;;;;;3.65;1.80;;;20.20;90.30;;;;;;5003350;28;20038;-62
2021/05/10 08:02:23;;;;;;;4.07;2.08;;;20.10;90.50;;;;;;4993012;28;20032;-61
2021/05/10 08:04:52;;;;;;;3.03;1.65;;;19.90;90.60;;;;;;5002687;28;20038;-61
2021/05/10 08:07:19;;;;;;;10.02;1.90;;;19.80;90.70;;;;;;5011853;28;20131;-62
2021/05/10 08:09:45;;;;;;;6.40;1.70;;;19.70;90.90;;;;;;5007577;28;20064;-61
2021/05/10 08:12:12;;;;;;;4.18;1.50;;;19.70;91.10;;;;;;5010042;28;20067;-61
2021/05/10 08:14:38;;;;;;;4.28;1.77;;;19.70;91.20;;;;;;4988173;28;20049;-60
2021/05/10 08:17:04;;;;;;;2.42;1.52;;;19.70;90.90;;;;;;5007704;28;20022;-61
2021/05/10 08:19:30;;;;;;;4.47;1.80;;;19.70;90.90;;;;;;5010794;28;20371;-61
2021/05/10 08:21:59;;;;;;;2.60;1.50;;;19.80;90.80;;;;;;5005198;28;20030;-62
2021/05/10 08:24:25;;;;;;;5.68;1.52;;;19.90;91.00;;;;;;5008435;28;20057;-61
2021/05/10 08:26:51;;;;;;;2.53;1.73;;;19.90;90.20;;;;;;5022344;28;20061;-61
2021/05/10 08:29:17;;;;;;;4.93;1.88;;;19.90;90.70;;;;;;5019979;28;20041;-60
2021/05/10 08:31:46;;;;;;;6.55;2.28;;;19.90;91.30;;;;;;5018036;28;20056;-59
2021/05/10 08:34:16;;;;;;;6.18;1.73;;;19.90;90.90;;;;;;5010615;28;20445;-62
2021/05/10 08:36:43;;;;;;;4.50;1.77;;;19.80;91.30;;;;;;5007592;28;20068;-60
2021/05/10 08:39:09;;;;;;;5.40;1.52;;;19.70;91.80;;;;;;5007133;28;20034;-62
2021/05/10 08:41:40;;;;;;;4.05;1.92;;;19.70;91.80;;;;;;4990968;28;20022;-62
2021/05/10 08:44:10;;;;;;;2.63;2.00;;;19.70;92.30;;;;;;5008285;28;20044;-62
2021/05/10 08:46:38;;;;;;;6.97;2.10;;;19.80;92.20;;;;;;5003576;28;20037;-62
2021/05/10 08:49:05;;;;;;;5.10;1.40;;;19.90;92.00;;;;;;5009611;28;20041;-62
2021/05/10 08:51:34;;;;;;;2.58;1.50;;;19.90;90.90;;;;;;5004223;28;20164;-61
2021/05/10 08:54:00;;;;;;;2.42;1.30;;;20.00;89.80;;;;;;5005081;28;20022;-62
2021/05/10 08:56:26;;;;;;;2.35;1.10;;;19.90;89.10;;;;;;5005115;28;20022;-61
2021/05/10 08:58:52;;;;;;;1.85;1.40;;;19.80;89.60;;;;;;5005765;28;20022;-62
2021/05/10 09:01:21;;;;;;;7.75;1.88;;;19.60;89.00;;;;;;5003284;28;20360;-62
2021/05/10 09:03:50;;;;;;;2.00;1.40;;;19.50;89.40;;;;;;5006202;28;20079;-61
2021/05/10 09:06:30;;;;;;;3.38;1.23;;;19.40;88.80;;;;;;5006426;28;20017;-60
2021/05/10 09:09:05;;;;;;;1.75;1.30;;;19.40;88.70;;;;;;5008431;28;20521;-61
2021/05/10 09:11:31;;;;;;;3.53;1.05;;;19.40;89.60;;;;;;5008099;28;20022;-62
2021/05/10 09:13:58;;;;;;;4.30;1.67;;;19.40;88.70;;;;;;4984976;28;20046;-62
2021/05/10 09:16:24;;;;;;;2.13;1.20;;;19.40;88.10;;;;;;5006854;28;20030;-60
2021/05/10 09:18:58;;;;;;;2.92;1.23;;;19.40;88.90;;;;;;5008096;28;20121;-62
2021/05/10 09:21:28;;;;;;;5.53;1.38;;;19.50;88.90;;;;;;5003708;28;20029;-61
2021/05/10 09:23:54;;;;;;;1.77;1.13;;;19.40;89.30;;;;;;5002112;28;20466;-60
2021/05/10 09:26:31;;;;;;;2.13;1.20;;;19.60;89.50;;;;;;5009914;28;20022;-61
2021/05/10 09:28:57;;;;;;;1.85;1.00;;;19.70;88.20;;;;;;5005765;28;20069;-62
2021/05/10 09:31:23;;;;;;;2.50;1.00;;;19.90;86.70;;;;;;5010733;28;20449;-60
2021/05/10 09:33:49;;;;;;;1.83;1.00;;;19.90;87.00;;;;;;5004582;28;20041;-61
2021/05/10 09:36:34;;;;;;;3.88;1.60;;;19.90;86.00;;;;;;5010468;28;20022;-60
2021/05/10 09:39:07;;;;;;;1.98;1.25;;;20.10;86.60;;;;;;5007080;28;20026;-61
2021/05/10 09:41:34;;;;;;;0.95;0.80;;;20.10;85.90;;;;;;4998796;28;20026;-61
2021/05/10 09:44:05;;;;;;;5.30;1.08;;;19.90;86.50;;;;;;5003289;28;20126;-62
2021/05/10 09:46:42;;;;;;;1.40;1.17;;;19.90;87.80;;;;;;5002929;28;20034;-61
2021/05/10 09:49:08;;;;;;;2.45;1.25;;;19.90;86.90;;;;;;5002447;28;20029;-62
2021/05/10 09:51:35;;;;;;;2.22;0.77;;;20.10;86.90;;;;;;5004494;28;20061;-62
2021/05/10 09:54:13;;;;;;;3.88;1.15;;;20.10;85.10;;;;;;5004735;28;20445;-61
2021/05/10 09:56:39;;;;;;;1.25;0.98;;;20.00;85.90;;;;;;5013561;28;20029;-61
2021/05/10 09:59:13;;;;;;;1.88;1.00;;;19.90;86.30;;;;;;4990111;28;20109;-61
2021/05/10 10:01:44;;;;;;;2.80;1.08;;;19.90;86.50;;;;;;5003302;28;20500;-60
2021/05/10 10:04:10;;;;;;;5.82;1.25;;;19.80;87.50;;;;;;4999709;28;20117;-60
2021/05/10 10:06:36;;;;;;;3.22;1.10;;;19.70;88.10;;;;;;5002501;28;20030;-62
2021/05/10 10:09:04;;;;;;;1.90;1.10;;;19.60;88.50;;;;;;5001537;28;20030;-62
2021/05/10 10:11:29;;;;;;;2.05;1.33;;;19.50;89.20;;;;;;5001886;28;20082;-62
2021/05/10 10:13:57;;;;;;;5.05;1.10;;;19.50;89.40;;;;;;4979967;28;20110;-62
2021/05/10 10:16:27;;;;;;;4.85;1.10;;;19.40;89.80;;;;;;5006124;28;20033;-62
2021/05/10 10:18:57;;;;;;;1.77;1.27;;;19.20;90.00;;;;;;5004500;28;20029;-62
2021/05/10 10:21:22;;;;;;;3.75;1.40;;;19.20;90.50;;;;;;5002927;28;20120;-61
2021/05/10 10:24:00;;;;;;;2.08;1.10;;;19.20;90.50;;;;;;5005431;28;20672;-60
2021/05/10 10:26:27;;;;;;;3.78;1.20;;;19.00;90.70;;;;;;5009417;28;20057;-62
2021/05/10 10:28:54;;;;;;;1.52;1.30;;;18.90;90.50;;;;;;4987074;28;20080;-62
2021/05/10 10:31:24;;;;;;;2.13;1.33;;;18.80;90.80;;;;;;5009709;28;20022;-62
2021/05/10 10:34:03;;;;;;;1.70;1.17;;;18.90;91.00;;;;;;5006200;28;20129;-62
2021/05/10 10:36:43;;;;;;;1.83;0.93;;;19.00;90.80;;;;;;5005458;28;20480;-61
2021/05/10 10:39:17;;;;;;;4.05;0.93;;;19.20;90.30;;;;;;5006234;28;20084;-61
2021/05/10 10:41:52;;;;;;;;;;;19.70;90.10;;;;;;5002986;28;20475;-61
2021/05/10 10:45:00;;;;;;;2.92;1.08;;;20.30;85.70;;;;;;5000564;28;19921;-62
2021/05/10 10:47:57;;;;;;;1.63;1.20;;;20.70;86.20;;;;;;5008097;28;20037;-63
2021/05/10 10:50:25;;;;;;;0.98;0.90;;;21.00;84.80;;;;;;5008964;28;20033;-58
2021/05/10 10:52:57;;;;;;;2.20;1.35;;;21.20;83.50;;;;;;5005815;28;20475;-62
2021/05/10 10:55:30;;;;;;;5.40;0.70;;;21.20;83.50;;;;;;5000669;28;20034;-62
2021/05/10 10:58:22;;;;;;;1.30;0.90;;;21.00;83.00;;;;;;5008763;28;20061;-61
2021/05/10 11:00:59;;;;;;;1.23;1.10;;;20.80;83.00;;;;;;5002459;28;20065;-61
2021/05/10 11:03:26;;;;;;;4.38;1.40;;;20.60;82.50;;;;;;5004974;28;20550;-62
2021/05/10 11:05:52;;;;;;;1.70;1.15;;;20.40;83.40;;;;;;5005308;28;20049;-60
2021/05/10 11:08:51;;;;;;;1.48;0.65;;;20.30;83.50;;;;;;5005805;28;20414;-64
2021/05/10 11:11:36;;;;;;;1.58;0.85;;;20.20;84.20;;;;;;4996976;28;20084;-61
2021/05/10 11:14:03;;;;;;;3.50;0.95;;;20.30;84.90;;;;;;4968923;28;20051;-61
2021/05/10 11:16:53;;;;;;;1.35;0.70;;;20.50;83.80;;;;;;4994132;28;20030;-60
2021/05/10 11:19:35;;;;;;;4.38;1.42;;;20.80;82.90;;;;;;4993324;28;20439;-62
2021/05/10 11:22:22;;;;;;;2.97;1.00;;;21.00;82.30;;;;;;4990385;28;20038;-62
2021/05/10 11:24:48;;;;;;;3.30;0.90;;;21.10;83.80;;;;;;4986503;28;20133;-61
2021/05/10 11:27:25;;;;;;;2.25;0.90;;;21.00;81.40;;;;;;4996771;28;20099;-61
2021/05/10 11:29:51;;;;;;;1.38;1.23;;;20.90;81.80;;;;;;4999724;28;20376;-62
2021/05/10 11:32:20;;;;;;;1.65;1.02;;;21.10;81.80;;;;;;4993686;28;20505;-62
2021/05/10 11:34:46;;;;;;;1.83;0.70;;;20.90;80.60;;;;;;5000077;28;20029;-61
2021/05/10 11:37:12;;;;;;;1.35;0.88;;;20.90;81.00;;;;;;4998282;28;20030;-62
2021/05/10 11:39:41;;;;;;;1.60;0.93;;;21.10;82.40;;;;;;5000445;28;20038;-62
2021/05/10 11:42:09;;;;;;;4.78;1.33;;;21.30;81.60;;;;;;5000383;28;20041;-62
2021/05/10 11:44:43;;;;;;;1.38;0.80;;;21.30;79.30;;;;;;4996914;28;20080;-61
2021/05/10 11:47:10;;;;;;;1.52;1.00;;;21.60;81.10;;;;;;4994742;28;20030;-62
2021/05/10 11:49:47;;;;;;;0.98;0.90;;;21.70;78.40;;;;;;5006351;28;20360;-62
2021/05/10 11:52:27;;;;;;;4.72;1.10;;;21.60;77.20;;;;;;4994589;28;20053;-63
2021/05/10 11:54:56;;;;;;;1.20;0.95;;;21.40;77.80;;;;;;4991941;28;20080;-62
2021/05/10 11:57:27;;;;;;;2.60;1.10;;;21.50;79.10;;;;;;5004753;28;20491;-61
2021/05/10 12:02:42;;;;;;;2.75;1.15;;;21.40;78.10;;;;;;5011602;28;20091;-61
2021/05/10 12:05:13;;;;;;;2.95;1.23;;;21.40;79.20;;;;;;5008789;28;20026;-62
2021/05/10 12:07:40;;;;;;;0.90;0.80;;;21.40;77.90;;;;;;5011527;28;20487;-60
2021/05/10 12:10:07;;;;;;;10.07;1.25;;;21.10;79.20;;;;;;4997158;28;20666;-60
2021/05/10 12:12:37;;;;;;;2.53;1.20;;;21.10;79.20;;;;;;5002596;28;20041;-61
2021/05/10 12:15:18;;;;;;;1.63;1.45;;;20.90;80.60;;;;;;4981158;28;20054;-61
2021/05/10 12:17:52;;;;;;;3.50;1.10;;;20.60;79.90;;;;;;5013980;28;20436;-61
2021/05/10 12:20:24;;;;;;;2.88;1.30;;;20.20;81.00;;;;;;5014808;28;20438;-61
2021/05/10 12:22:52;;;;;;;7.63;1.17;;;20.10;81.20;;;;;;5015761;28;20029;-60
2021/05/10 12:25:25;;;;;;;1.65;1.30;;;19.90;82.30;;;;;;5009969;28;20161;-60
2021/05/10 12:28:11;;;;;;;3.30;1.30;;;19.80;82.90;;;;;;5017281;28;20025;-61
2021/05/10 12:31:00;;;;;;;1.13;1.02;;;19.60;83.90;;;;;;5009410;28;20140;-61
2021/05/10 12:33:28;;;;;;;1.50;1.20;;;19.60;85.10;;;;;;5007390;28;20103;-60
2021/05/10 12:35:55;;;;;;;1.95;1.13;;;19.40;84.40;;;;;;5011639;28;20186;-60
2021/05/10 12:38:32;;;;;;;1.95;1.38;;;19.40;84.00;;;;;;5011906;28;20017;-61
2021/05/10 12:41:02;;;;;;;2.97;1.73;;;19.40;85.40;;;;;;5015610;28;20110;-60
2021/05/10 12:43:30;;;;;;;1.80;1.30;;;19.40;83.90;;;;;;5002927;28;20426;-61
2021/05/10 12:46:00;;;;;;;3.15;1.40;;;19.40;83.90;;;;;;5004476;28;20038;-61
2021/05/10 12:48:29;;;;;;;2.90;1.50;;;19.60;84.80;;;;;;5004984;28;20041;-62
2021/05/10 12:51:04;;;;;;;2.22;1.50;;;19.70;85.20;;;;;;5009039;28;20034;-62
2021/05/10 12:54:00;;;;;;;3.47;1.30;;;19.90;83.60;;;;;;5008889;28;20890;-61
2021/05/10 12:56:27;;;;;;;7.20;2.05;;;20.00;83.90;;;;;;4987825;28;20096;-60
2021/05/10 12:58:53;;;;;;;2.47;1.40;;;20.00;82.60;;;;;;5007446;28;20484;-60
2021/05/10 13:01:28;;;;;;;3.13;1.17;;;20.10;83.70;;;;;;5012061;28;20030;-61